sensor_id;sensor_type;location;lat;lon;timestamp;P1;durP1;ratioP1;P2;durP2;ratioP2
55674;SDS011;41562;44.330;23.802;2023-05-24T00:02:21;0.73;;;0.65;;
55674;SDS011;41562;44.330;23.802;2023-05-24T00:04:48;1.67;;;0.93;;
55674;SDS011;41562;44.330;23.802;2023-05-24T00:07:15;2.67;;;1.17;;
55674;SDS011;41562;44.330;23.802;2023-05-24T00:09:43;1.67;;;0.93;;
55674;SDS011;41562;44.330;23.802;2023-05-24T00:12:10;1.02;;;0.57;;
55674;SDS011;41562;44.330;23.802;2023-05-24T00:14:37;1.02;;;0.93;;
55674;SDS011;41562;44.330;23.802;2023-05-24T00:17:05;0.85;;;0.60;;
55674;SDS011;41562;44.330;23.802;2023-05-24T00:19:32;2.60;;;0.85;;
55674;SDS011;41562;44.330;23.802;2023-05-24T00:22:00;1.90;;;0.85;;
55674;SDS011;41562;44.330;23.802;2023-05-24T00:24:27;0.70;;;0.55;;
55674;SDS011;41562;44.330;23.802;2023-05-24T00:26:54;0.98;;;0.60;;
55674;SDS011;41562;44.330;23.802;2023-05-24T00:29:21;0.70;;;0.60;;
55674;SDS011;41562;44.330;23.802;2023-05-24T00:31:48;0.65;;;0.52;;
55674;SDS011;41562;44.330;23.802;2023-05-24T00:34:16;0.80;;;0.43;;
55674;SDS011;41562;44.330;23.802;2023-05-24T00:36:43;1.95;;;1.40;;
55674;SDS011;41562;44.330;23.802;2023-05-24T00:39:10;0.85;;;0.77;;
55674;SDS011;41562;44.330;23.802;2023-05-24T00:41:37;1.30;;;0.70;;
55674;SDS011;41562;44.330;23.802;2023-05-24T00:44:05;1.63;;;0.60;;
55674;SDS011;41562;44.330;23.802;2023-05-24T00:46:32;1.35;;;0.60;;
55674;SDS011;41562;44.330;23.802;2023-05-24T00:49:01;1.60;;;1.27;;
55674;SDS011;41562;44.330;23.802;2023-05-24T00:51:29;0.60;;;0.60;;
55674;SDS011;41562;44.330;23.802;2023-05-24T00:53:56;1.25;;;0.85;;
55674;SDS011;41562;44.330;23.802;2023-05-24T00:56:24;0.65;;;0.63;;
55674;SDS011;41562;44.330;23.802;2023-05-24T00:58:52;1.23;;;0.80;;
55674;SDS011;41562;44.330;23.802;2023-05-24T01:01:19;1.58;;;0.93;;
55674;SDS011;41562;44.330;23.802;2023-05-24T01:03:47;0.43;;;0.43;;
55674;SDS011;41562;44.330;23.802;2023-05-24T01:06:14;2.78;;;1.50;;
55674;SDS011;41562;44.330;23.802;2023-05-24T01:08:44;1.15;;;1.05;;
55674;SDS011;41562;44.330;23.802;2023-05-24T01:11:38;0.98;;;0.73;;
55674;SDS011;41562;44.330;23.802;2023-05-24T01:14:20;1.02;;;0.73;;
55674;SDS011;41562;44.330;23.802;2023-05-24T01:16:55;1.83;;;0.57;;
55674;SDS011;41562;44.330;23.802;2023-05-24T01:19:39;1.58;;;1.48;;
55674;SDS011;41562;44.330;23.802;2023-05-24T01:27:16;0.47;;;0.47;;
55674;SDS011;41562;44.330;23.802;2023-05-24T01:29:43;0.40;;;0.40;;
55674;SDS011;41562;44.330;23.802;2023-05-24T01:32:11;0.60;;;0.55;;
55674;SDS011;41562;44.330;23.802;2023-05-24T01:34:39;2.15;;;0.85;;
55674;SDS011;41562;44.330;23.802;2023-05-24T01:37:06;0.40;;;0.40;;
55674;SDS011;41562;44.330;23.802;2023-05-24T01:39:33;1.25;;;0.75;;
55674;SDS011;41562;44.330;23.802;2023-05-24T01:42:06;0.88;;;0.88;;
55674;SDS011;41562;44.330;23.802;2023-05-24T01:44:46;0.57;;;0.57;;
55674;SDS011;41562;44.330;23.802;2023-05-24T01:47:33;0.95;;;0.90;;
55674;SDS011;41562;44.330;23.802;2023-05-24T01:50:24;1.38;;;0.77;;
55674;SDS011;41562;44.330;23.802;2023-05-24T01:52:54;0.40;;;0.40;;
55674;SDS011;41562;44.330;23.802;2023-05-24T01:55:29;0.90;;;0.85;;
55674;SDS011;41562;44.330;23.802;2023-05-24T01:58:00;0.75;;;0.47;;
55674;SDS011;41562;44.330;23.802;2023-05-24T02:00:30;0.52;;;0.52;;
55674;SDS011;41562;44.330;23.802;2023-05-24T02:03:00;0.55;;;0.30;;
55674;SDS011;41562;44.330;23.802;2023-05-24T02:05:28;1.02;;;0.52;;
55674;SDS011;41562;44.330;23.802;2023-05-24T02:07:57;2.17;;;1.10;;
55674;SDS011;41562;44.330;23.802;2023-05-24T02:10:25;0.68;;;0.60;;
55674;SDS011;41562;44.330;23.802;2023-05-24T02:12:52;1.02;;;0.63;;
55674;SDS011;41562;44.330;23.802;2023-05-24T02:15:19;2.10;;;0.77;;
55674;SDS011;41562;44.330;23.802;2023-05-24T02:17:46;0.80;;;0.80;;
55674;SDS011;41562;44.330;23.802;2023-05-24T02:20:14;0.22;;;0.22;;
55674;SDS011;41562;44.330;23.802;2023-05-24T02:22:41;2.35;;;1.05;;
55674;SDS011;41562;44.330;23.802;2023-05-24T02:25:09;1.25;;;0.90;;
55674;SDS011;41562;44.330;23.802;2023-05-24T02:27:36;1.02;;;0.75;;
55674;SDS011;41562;44.330;23.802;2023-05-24T02:30:04;0.90;;;0.47;;
55674;SDS011;41562;44.330;23.802;2023-05-24T02:32:32;0.80;;;0.80;;
55674;SDS011;41562;44.330;23.802;2023-05-24T02:35:03;0.68;;;0.60;;
55674;SDS011;41562;44.330;23.802;2023-05-24T02:37:31;0.65;;;0.65;;
55674;SDS011;41562;44.330;23.802;2023-05-24T02:39:58;1.05;;;0.95;;
55674;SDS011;41562;44.330;23.802;2023-05-24T02:42:26;1.90;;;1.02;;
55674;SDS011;41562;44.330;23.802;2023-05-24T02:44:56;2.53;;;0.77;;
55674;SDS011;41562;44.330;23.802;2023-05-24T02:47:27;0.50;;;0.50;;
55674;SDS011;41562;44.330;23.802;2023-05-24T02:49:54;0.32;;;0.32;;
55674;SDS011;41562;44.330;23.802;2023-05-24T02:52:22;0.98;;;0.68;;
55674;SDS011;41562;44.330;23.802;2023-05-24T02:54:49;0.25;;;0.25;;
55674;SDS011;41562;44.330;23.802;2023-05-24T02:57:16;1.15;;;0.45;;
55674;SDS011;41562;44.330;23.802;2023-05-24T02:59:44;1.20;;;1.02;;
55674;SDS011;41562;44.330;23.802;2023-05-24T03:02:11;1.45;;;0.68;;
55674;SDS011;41562;44.330;23.802;2023-05-24T03:04:39;0.45;;;0.38;;
55674;SDS011;41562;44.330;23.802;2023-05-24T03:07:06;0.47;;;0.35;;
55674;SDS011;41562;44.330;23.802;2023-05-24T03:09:33;1.10;;;0.80;;
55674;SDS011;41562;44.330;23.802;2023-05-24T03:12:00;0.52;;;0.45;;
55674;SDS011;41562;44.330;23.802;2023-05-24T03:14:28;1.35;;;1.25;;
55674;SDS011;41562;44.330;23.802;2023-05-24T03:16:55;1.38;;;0.93;;
55674;SDS011;41562;44.330;23.802;2023-05-24T03:19:22;0.70;;;0.70;;
55674;SDS011;41562;44.330;23.802;2023-05-24T03:21:49;2.42;;;0.93;;
55674;SDS011;41562;44.330;23.802;2023-05-24T03:24:17;1.55;;;0.60;;
55674;SDS011;41562;44.330;23.802;2023-05-24T03:26:44;0.77;;;0.73;;
55674;SDS011;41562;44.330;23.802;2023-05-24T03:29:11;0.63;;;0.63;;
55674;SDS011;41562;44.330;23.802;2023-05-24T03:31:39;1.75;;;0.90;;
55674;SDS011;41562;44.330;23.802;2023-05-24T03:34:06;0.52;;;0.52;;
55674;SDS011;41562;44.330;23.802;2023-05-24T03:36:33;1.10;;;1.05;;
55674;SDS011;41562;44.330;23.802;2023-05-24T03:39:02;1.02;;;0.75;;
55674;SDS011;41562;44.330;23.802;2023-05-24T03:41:29;2.53;;;0.93;;
55674;SDS011;41562;44.330;23.802;2023-05-24T03:43:57;1.10;;;0.70;;
55674;SDS011;41562;44.330;23.802;2023-05-24T03:46:24;2.17;;;1.30;;
55674;SDS011;41562;44.330;23.802;2023-05-24T03:48:51;0.80;;;0.55;;
55674;SDS011;41562;44.330;23.802;2023-05-24T03:51:19;1.45;;;0.80;;
55674;SDS011;41562;44.330;23.802;2023-05-24T03:53:46;0.50;;;0.47;;
55674;SDS011;41562;44.330;23.802;2023-05-24T03:56:14;0.73;;;0.70;;
55674;SDS011;41562;44.330;23.802;2023-05-24T03:58:41;0.95;;;0.80;;
55674;SDS011;41562;44.330;23.802;2023-05-24T04:01:08;1.10;;;1.00;;
55674;SDS011;41562;44.330;23.802;2023-05-24T04:03:42;0.77;;;0.77;;
55674;SDS011;41562;44.330;23.802;2023-05-24T04:06:09;5.25;;;1.55;;
55674;SDS011;41562;44.330;23.802;2023-05-24T04:08:43;0.75;;;0.75;;
55674;SDS011;41562;44.330;23.802;2023-05-24T04:11:25;2.03;;;0.90;;
55674;SDS011;41562;44.330;23.802;2023-05-24T04:13:53;3.80;;;1.20;;
55674;SDS011;41562;44.330;23.802;2023-05-24T04:16:21;1.60;;;0.90;;
55674;SDS011;41562;44.330;23.802;2023-05-24T04:18:49;1.50;;;0.88;;
55674;SDS011;41562;44.330;23.802;2023-05-24T04:21:18;0.43;;;0.43;;
55674;SDS011;41562;44.330;23.802;2023-05-24T04:23:46;1.35;;;0.80;;
55674;SDS011;41562;44.330;23.802;2023-05-24T04:26:14;1.35;;;0.90;;
55674;SDS011;41562;44.330;23.802;2023-05-24T04:28:43;1.20;;;0.85;;
55674;SDS011;41562;44.330;23.802;2023-05-24T04:31:11;3.72;;;1.38;;
55674;SDS011;41562;44.330;23.802;2023-05-24T04:33:39;2.50;;;0.80;;
55674;SDS011;41562;44.330;23.802;2023-05-24T04:36:07;0.50;;;0.50;;
55674;SDS011;41562;44.330;23.802;2023-05-24T04:38:35;0.98;;;0.63;;
55674;SDS011;41562;44.330;23.802;2023-05-24T04:41:03;1.35;;;0.90;;
55674;SDS011;41562;44.330;23.802;2023-05-24T04:43:32;0.80;;;0.80;;
55674;SDS011;41562;44.330;23.802;2023-05-24T04:46:00;1.05;;;0.73;;
55674;SDS011;41562;44.330;23.802;2023-05-24T04:48:29;4.13;;;2.67;;
55674;SDS011;41562;44.330;23.802;2023-05-24T04:50:57;12.88;;;7.75;;
55674;SDS011;41562;44.330;23.802;2023-05-24T04:53:24;10.88;;;6.95;;
55674;SDS011;41562;44.330;23.802;2023-05-24T04:55:52;10.25;;;5.95;;
55674;SDS011;41562;44.330;23.802;2023-05-24T04:58:19;5.47;;;4.32;;
55674;SDS011;41562;44.330;23.802;2023-05-24T05:00:46;3.47;;;2.55;;
55674;SDS011;41562;44.330;23.802;2023-05-24T05:03:14;2.42;;;2.22;;
55674;SDS011;41562;44.330;23.802;2023-05-24T05:05:42;1.77;;;1.25;;
55674;SDS011;41562;44.330;23.802;2023-05-24T05:08:20;1.38;;;1.27;;
55674;SDS011;41562;44.330;23.802;2023-05-24T05:10:48;4.07;;;1.05;;
55674;SDS011;41562;44.330;23.802;2023-05-24T05:13:15;1.63;;;1.05;;
55674;SDS011;41562;44.330;23.802;2023-05-24T05:15:42;1.65;;;1.25;;
55674;SDS011;41562;44.330;23.802;2023-05-24T05:18:09;0.88;;;0.75;;
55674;SDS011;41562;44.330;23.802;2023-05-24T05:20:37;0.40;;;0.40;;
55674;SDS011;41562;44.330;23.802;2023-05-24T05:23:04;2.00;;;1.40;;
55674;SDS011;41562;44.330;23.802;2023-05-24T05:25:31;1.77;;;1.00;;
55674;SDS011;41562;44.330;23.802;2023-05-24T05:27:59;1.25;;;1.00;;
55674;SDS011;41562;44.330;23.802;2023-05-24T05:30:26;2.30;;;1.75;;
55674;SDS011;41562;44.330;23.802;2023-05-24T05:32:53;1.48;;;1.10;;
55674;SDS011;41562;44.330;23.802;2023-05-24T05:35:20;2.63;;;1.17;;
55674;SDS011;41562;44.330;23.802;2023-05-24T05:37:47;1.38;;;1.27;;
55674;SDS011;41562;44.330;23.802;2023-05-24T05:40:15;0.68;;;0.63;;
55674;SDS011;41562;44.330;23.802;2023-05-24T05:42:42;2.35;;;1.20;;
55674;SDS011;41562;44.330;23.802;2023-05-24T05:45:10;1.75;;;0.77;;
55674;SDS011;41562;44.330;23.802;2023-05-24T05:47:37;0.70;;;0.68;;
55674;SDS011;41562;44.330;23.802;2023-05-24T05:50:06;0.57;;;0.57;;
55674;SDS011;41562;44.330;23.802;2023-05-24T05:52:33;3.95;;;1.15;;
55674;SDS011;41562;44.330;23.802;2023-05-24T05:55:01;0.98;;;0.90;;
55674;SDS011;41562;44.330;23.802;2023-05-24T05:57:29;0.80;;;0.73;;
55674;SDS011;41562;44.330;23.802;2023-05-24T05:59:56;2.47;;;1.17;;
55674;SDS011;41562;44.330;23.802;2023-05-24T06:02:23;2.70;;;1.40;;
55674;SDS011;41562;44.330;23.802;2023-05-24T06:04:51;2.83;;;1.45;;
55674;SDS011;41562;44.330;23.802;2023-05-24T06:07:18;1.65;;;0.73;;
55674;SDS011;41562;44.330;23.802;2023-05-24T06:09:46;4.72;;;1.38;;
55674;SDS011;41562;44.330;23.802;2023-05-24T06:12:13;1.45;;;1.08;;
55674;SDS011;41562;44.330;23.802;2023-05-24T06:14:40;4.00;;;1.30;;
55674;SDS011;41562;44.330;23.802;2023-05-24T06:17:08;2.20;;;1.33;;
55674;SDS011;41562;44.330;23.802;2023-05-24T06:19:36;2.38;;;1.10;;
55674;SDS011;41562;44.330;23.802;2023-05-24T06:22:04;1.75;;;1.33;;
55674;SDS011;41562;44.330;23.802;2023-05-24T06:24:31;1.67;;;1.08;;
55674;SDS011;41562;44.330;23.802;2023-05-24T06:26:58;1.25;;;0.70;;
55674;SDS011;41562;44.330;23.802;2023-05-24T06:29:26;1.95;;;0.80;;
55674;SDS011;41562;44.330;23.802;2023-05-24T06:31:53;1.23;;;1.00;;
55674;SDS011;41562;44.330;23.802;2023-05-24T06:34:21;2.10;;;1.38;;
55674;SDS011;41562;44.330;23.802;2023-05-24T06:36:48;1.65;;;1.33;;
55674;SDS011;41562;44.330;23.802;2023-05-24T06:39:15;3.13;;;1.25;;
55674;SDS011;41562;44.330;23.802;2023-05-24T06:41:43;2.88;;;1.58;;
55674;SDS011;41562;44.330;23.802;2023-05-24T06:44:11;1.80;;;1.63;;
55674;SDS011;41562;44.330;23.802;2023-05-24T06:46:38;1.85;;;1.75;;
55674;SDS011;41562;44.330;23.802;2023-05-24T06:49:06;1.17;;;1.08;;
55674;SDS011;41562;44.330;23.802;2023-05-24T06:51:33;1.63;;;1.02;;
55674;SDS011;41562;44.330;23.802;2023-05-24T06:54:00;2.38;;;1.80;;
55674;SDS011;41562;44.330;23.802;2023-05-24T06:56:29;2.95;;;1.50;;
55674;SDS011;41562;44.330;23.802;2023-05-24T06:58:58;4.35;;;1.73;;
55674;SDS011;41562;44.330;23.802;2023-05-24T07:01:26;1.73;;;1.30;;
55674;SDS011;41562;44.330;23.802;2023-05-24T07:03:53;1.60;;;0.98;;
55674;SDS011;41562;44.330;23.802;2023-05-24T07:06:21;1.40;;;1.25;;
55674;SDS011;41562;44.330;23.802;2023-05-24T07:08:48;0.73;;;0.73;;
55674;SDS011;41562;44.330;23.802;2023-05-24T07:11:15;3.83;;;1.50;;
55674;SDS011;41562;44.330;23.802;2023-05-24T07:13:43;1.20;;;0.82;;
55674;SDS011;41562;44.330;23.802;2023-05-24T07:16:10;3.42;;;1.58;;
55674;SDS011;41562;44.330;23.802;2023-05-24T07:18:38;1.42;;;1.23;;
55674;SDS011;41562;44.330;23.802;2023-05-24T07:21:05;1.48;;;0.85;;
55674;SDS011;41562;44.330;23.802;2023-05-24T07:23:33;2.15;;;1.58;;
55674;SDS011;41562;44.330;23.802;2023-05-24T07:26:01;1.35;;;0.95;;
55674;SDS011;41562;44.330;23.802;2023-05-24T07:28:30;2.30;;;1.20;;
55674;SDS011;41562;44.330;23.802;2023-05-24T07:30:58;1.35;;;1.02;;
55674;SDS011;41562;44.330;23.802;2023-05-24T07:33:25;2.72;;;1.30;;
55674;SDS011;41562;44.330;23.802;2023-05-24T07:35:53;2.10;;;1.02;;
55674;SDS011;41562;44.330;23.802;2023-05-24T07:38:20;0.98;;;0.82;;
55674;SDS011;41562;44.330;23.802;2023-05-24T07:40:48;2.75;;;1.23;;
55674;SDS011;41562;44.330;23.802;2023-05-24T07:43:15;3.47;;;0.88;;
55674;SDS011;41562;44.330;23.802;2023-05-24T07:45:42;2.90;;;1.42;;
55674;SDS011;41562;44.330;23.802;2023-05-24T07:48:10;6.00;;;1.30;;
55674;SDS011;41562;44.330;23.802;2023-05-24T07:50:38;1.10;;;0.90;;
55674;SDS011;41562;44.330;23.802;2023-05-24T07:53:05;2.28;;;1.27;;
55674;SDS011;41562;44.330;23.802;2023-05-24T07:55:33;2.00;;;1.10;;
55674;SDS011;41562;44.330;23.802;2023-05-24T07:58:00;5.50;;;1.00;;
55674;SDS011;41562;44.330;23.802;2023-05-24T08:00:27;1.25;;;0.88;;
55674;SDS011;41562;44.330;23.802;2023-05-24T08:02:55;1.73;;;1.25;;
55674;SDS011;41562;44.330;23.802;2023-05-24T08:05:22;11.95;;;1.20;;
55674;SDS011;41562;44.330;23.802;2023-05-24T08:07:51;1.48;;;1.00;;
55674;SDS011;41562;44.330;23.802;2023-05-24T08:10:18;1.52;;;0.82;;
55674;SDS011;41562;44.330;23.802;2023-05-24T08:12:46;2.42;;;1.15;;
55674;SDS011;41562;44.330;23.802;2023-05-24T08:15:13;2.30;;;1.30;;
55674;SDS011;41562;44.330;23.802;2023-05-24T08:17:41;1.90;;;1.48;;
55674;SDS011;41562;44.330;23.802;2023-05-24T08:20:09;2.25;;;1.63;;
55674;SDS011;41562;44.330;23.802;2023-05-24T08:22:37;2.58;;;1.27;;
55674;SDS011;41562;44.330;23.802;2023-05-24T08:25:05;2.35;;;1.20;;
55674;SDS011;41562;44.330;23.802;2023-05-24T08:27:33;4.25;;;1.90;;
55674;SDS011;41562;44.330;23.802;2023-05-24T08:30:00;2.45;;;1.10;;
55674;SDS011;41562;44.330;23.802;2023-05-24T08:32:28;1.48;;;1.15;;
55674;SDS011;41562;44.330;23.802;2023-05-24T08:34:55;1.52;;;0.80;;
55674;SDS011;41562;44.330;23.802;2023-05-24T08:37:37;1.55;;;1.15;;
55674;SDS011;41562;44.330;23.802;2023-05-24T08:40:04;0.95;;;0.88;;
55674;SDS011;41562;44.330;23.802;2023-05-24T08:42:32;1.77;;;0.63;;
55674;SDS011;41562;44.330;23.802;2023-05-24T08:45:03;1.67;;;1.05;;
55674;SDS011;41562;44.330;23.802;2023-05-24T08:47:34;3.35;;;0.98;;
55674;SDS011;41562;44.330;23.802;2023-05-24T08:50:03;1.42;;;1.08;;
55674;SDS011;41562;44.330;23.802;2023-05-24T08:52:31;2.17;;;1.42;;
55674;SDS011;41562;44.330;23.802;2023-05-24T08:54:59;2.33;;;0.85;;
55674;SDS011;41562;44.330;23.802;2023-05-24T08:57:27;1.90;;;1.02;;
55674;SDS011;41562;44.330;23.802;2023-05-24T08:59:55;0.90;;;0.75;;
55674;SDS011;41562;44.330;23.802;2023-05-24T09:02:22;1.75;;;1.33;;
55674;SDS011;41562;44.330;23.802;2023-05-24T09:04:51;2.45;;;1.48;;
55674;SDS011;41562;44.330;23.802;2023-05-24T09:07:20;1.83;;;0.95;;
55674;SDS011;41562;44.330;23.802;2023-05-24T09:09:51;4.13;;;1.38;;
55674;SDS011;41562;44.330;23.802;2023-05-24T09:12:37;2.28;;;1.42;;
55674;SDS011;41562;44.330;23.802;2023-05-24T09:15:06;1.25;;;0.80;;
55674;SDS011;41562;44.330;23.802;2023-05-24T09:17:35;3.10;;;1.20;;
55674;SDS011;41562;44.330;23.802;2023-05-24T09:20:06;1.42;;;1.05;;
55674;SDS011;41562;44.330;23.802;2023-05-24T09:22:34;0.95;;;0.77;;
55674;SDS011;41562;44.330;23.802;2023-05-24T09:25:07;1.83;;;0.93;;
55674;SDS011;41562;44.330;23.802;2023-05-24T09:27:36;1.98;;;1.77;;
55674;SDS011;41562;44.330;23.802;2023-05-24T09:30:07;3.28;;;1.23;;
55674;SDS011;41562;44.330;23.802;2023-05-24T09:32:36;4.30;;;1.30;;
55674;SDS011;41562;44.330;23.802;2023-05-24T09:35:06;1.20;;;0.85;;
55674;SDS011;41562;44.330;23.802;2023-05-24T09:37:35;2.45;;;1.35;;
55674;SDS011;41562;44.330;23.802;2023-05-24T09:40:03;2.60;;;1.33;;
55674;SDS011;41562;44.330;23.802;2023-05-24T09:42:31;1.95;;;1.08;;
55674;SDS011;41562;44.330;23.802;2023-05-24T09:47:32;1.40;;;1.10;;
55674;SDS011;41562;44.330;23.802;2023-05-24T09:50:00;0.98;;;0.98;;
55674;SDS011;41562;44.330;23.802;2023-05-24T09:52:28;2.13;;;1.10;;
55674;SDS011;41562;44.330;23.802;2023-05-24T09:54:56;2.72;;;1.48;;
55674;SDS011;41562;44.330;23.802;2023-05-24T09:57:23;1.83;;;1.23;;
55674;SDS011;41562;44.330;23.802;2023-05-24T09:59:51;3.28;;;1.70;;
55674;SDS011;41562;44.330;23.802;2023-05-24T10:02:20;1.50;;;1.30;;
55674;SDS011;41562;44.330;23.802;2023-05-24T10:04:48;1.52;;;1.15;;
55674;SDS011;41562;44.330;23.802;2023-05-24T10:07:24;1.20;;;0.82;;
55674;SDS011;41562;44.330;23.802;2023-05-24T10:09:51;4.25;;;1.25;;
55674;SDS011;41562;44.330;23.802;2023-05-24T10:12:19;0.90;;;0.82;;
55674;SDS011;41562;44.330;23.802;2023-05-24T10:14:46;2.55;;;1.20;;
55674;SDS011;41562;44.330;23.802;2023-05-24T10:17:15;2.80;;;1.05;;
55674;SDS011;41562;44.330;23.802;2023-05-24T10:19:43;1.45;;;1.13;;
55674;SDS011;41562;44.330;23.802;2023-05-24T10:22:11;1.25;;;0.82;;
55674;SDS011;41562;44.330;23.802;2023-05-24T10:24:45;1.70;;;1.08;;
55674;SDS011;41562;44.330;23.802;2023-05-24T10:27:17;2.35;;;1.25;;
55674;SDS011;41562;44.330;23.802;2023-05-24T10:32:54;2.13;;;0.80;;
55674;SDS011;41562;44.330;23.802;2023-05-24T10:35:26;1.23;;;0.70;;
55674;SDS011;41562;44.330;23.802;2023-05-24T10:37:55;1.83;;;1.10;;
55674;SDS011;41562;44.330;23.802;2023-05-24T10:40:23;2.00;;;1.30;;
55674;SDS011;41562;44.330;23.802;2023-05-24T10:42:50;0.77;;;0.75;;
55674;SDS011;41562;44.330;23.802;2023-05-24T10:47:49;1.33;;;1.00;;
55674;SDS011;41562;44.330;23.802;2023-05-24T10:50:19;1.80;;;0.93;;
55674;SDS011;41562;44.330;23.802;2023-05-24T10:52:48;2.15;;;1.33;;
55674;SDS011;41562;44.330;23.802;2023-05-24T10:55:17;1.52;;;0.82;;
55674;SDS011;41562;44.330;23.802;2023-05-24T10:57:45;1.53;;;1.30;;
55674;SDS011;41562;44.330;23.802;2023-05-24T11:03:02;2.60;;;0.93;;
55674;SDS011;41562;44.330;23.802;2023-05-24T11:08:13;1.85;;;1.20;;
55674;SDS011;41562;44.330;23.802;2023-05-24T11:10:41;1.20;;;1.08;;
55674;SDS011;41562;44.330;23.802;2023-05-24T11:13:12;2.58;;;0.98;;
55674;SDS011;41562;44.330;23.802;2023-05-24T11:15:47;1.20;;;0.98;;
55674;SDS011;41562;44.330;23.802;2023-05-24T11:18:16;1.77;;;1.00;;
55674;SDS011;41562;44.330;23.802;2023-05-24T11:20:49;3.25;;;1.23;;
55674;SDS011;41562;44.330;23.802;2023-05-24T11:23:17;2.15;;;0.70;;
55674;SDS011;41562;44.330;23.802;2023-05-24T11:25:45;1.20;;;1.10;;
55674;SDS011;41562;44.330;23.802;2023-05-24T11:28:13;1.60;;;0.90;;
55674;SDS011;41562;44.330;23.802;2023-05-24T11:30:45;1.05;;;0.70;;
55674;SDS011;41562;44.330;23.802;2023-05-24T11:33:14;1.02;;;0.90;;
55674;SDS011;41562;44.330;23.802;2023-05-24T11:35:45;1.00;;;0.88;;
55674;SDS011;41562;44.330;23.802;2023-05-24T11:38:13;1.38;;;0.82;;
55674;SDS011;41562;44.330;23.802;2023-05-24T11:40:41;1.50;;;0.98;;
55674;SDS011;41562;44.330;23.802;2023-05-24T11:43:11;1.25;;;1.00;;
55674;SDS011;41562;44.330;23.802;2023-05-24T11:45:47;0.90;;;0.85;;
55674;SDS011;41562;44.330;23.802;2023-05-24T11:48:15;1.13;;;1.02;;
55674;SDS011;41562;44.330;23.802;2023-05-24T11:50:45;2.17;;;0.90;;
55674;SDS011;41562;44.330;23.802;2023-05-24T11:53:19;1.27;;;1.02;;
55674;SDS011;41562;44.330;23.802;2023-05-24T11:55:46;1.98;;;0.90;;
55674;SDS011;41562;44.330;23.802;2023-05-24T12:00:42;1.45;;;0.90;;
55674;SDS011;41562;44.330;23.802;2023-05-24T12:03:10;1.67;;;0.98;;
55674;SDS011;41562;44.330;23.802;2023-05-24T12:05:38;2.00;;;1.33;;
55674;SDS011;41562;44.330;23.802;2023-05-24T12:08:06;1.88;;;1.15;;
55674;SDS011;41562;44.330;23.802;2023-05-24T12:10:39;2.13;;;1.40;;
55674;SDS011;41562;44.330;23.802;2023-05-24T12:13:19;1.05;;;0.93;;
55674;SDS011;41562;44.330;23.802;2023-05-24T12:15:52;3.03;;;0.88;;
55674;SDS011;41562;44.330;23.802;2023-05-24T12:18:23;3.22;;;1.05;;
55674;SDS011;41562;44.330;23.802;2023-05-24T12:20:52;1.88;;;1.40;;
55674;SDS011;41562;44.330;23.802;2023-05-24T12:23:21;1.30;;;0.95;;
55674;SDS011;41562;44.330;23.802;2023-05-24T12:25:50;1.35;;;1.20;;
55674;SDS011;41562;44.330;23.802;2023-05-24T12:28:20;4.05;;;1.35;;
55674;SDS011;41562;44.330;23.802;2023-05-24T12:30:48;1.83;;;0.70;;
55674;SDS011;41562;44.330;23.802;2023-05-24T12:33:18;1.00;;;0.70;;
55674;SDS011;41562;44.330;23.802;2023-05-24T12:35:47;0.60;;;0.60;;
55674;SDS011;41562;44.330;23.802;2023-05-24T12:38:17;0.93;;;0.70;;
55674;SDS011;41562;44.330;23.802;2023-05-24T12:40:45;3.13;;;0.90;;
55674;SDS011;41562;44.330;23.802;2023-05-24T12:43:25;1.20;;;1.10;;
55674;SDS011;41562;44.330;23.802;2023-05-24T12:45:53;5.35;;;1.30;;
55674;SDS011;41562;44.330;23.802;2023-05-24T12:48:20;1.83;;;0.90;;
55674;SDS011;41562;44.330;23.802;2023-05-24T12:50:49;1.35;;;0.90;;
55674;SDS011;41562;44.330;23.802;2023-05-24T12:53:17;1.17;;;0.93;;
55674;SDS011;41562;44.330;23.802;2023-05-24T12:55:44;1.75;;;1.08;;
55674;SDS011;41562;44.330;23.802;2023-05-24T12:58:11;1.67;;;1.08;;
55674;SDS011;41562;44.330;23.802;2023-05-24T13:00:39;2.30;;;1.30;;
55674;SDS011;41562;44.330;23.802;2023-05-24T13:03:07;2.65;;;1.20;;
55674;SDS011;41562;44.330;23.802;2023-05-24T13:05:44;2.60;;;0.88;;
55674;SDS011;41562;44.330;23.802;2023-05-24T13:08:25;1.75;;;0.95;;
55674;SDS011;41562;44.330;23.802;2023-05-24T13:10:52;1.00;;;0.90;;
55674;SDS011;41562;44.330;23.802;2023-05-24T13:13:20;2.67;;;0.80;;
55674;SDS011;41562;44.330;23.802;2023-05-24T13:15:47;1.83;;;0.93;;
55674;SDS011;41562;44.330;23.802;2023-05-24T13:18:15;2.60;;;1.08;;
55674;SDS011;41562;44.330;23.802;2023-05-24T13:20:43;1.92;;;1.13;;
55674;SDS011;41562;44.330;23.802;2023-05-24T13:23:11;2.88;;;1.20;;
55674;SDS011;41562;44.330;23.802;2023-05-24T13:25:38;1.13;;;1.08;;
55674;SDS011;41562;44.330;23.802;2023-05-24T13:28:06;1.20;;;1.10;;
55674;SDS011;41562;44.330;23.802;2023-05-24T13:30:33;0.95;;;0.82;;
55674;SDS011;41562;44.330;23.802;2023-05-24T13:33:01;1.70;;;0.90;;
55674;SDS011;41562;44.330;23.802;2023-05-24T13:35:29;1.38;;;1.02;;
55674;SDS011;41562;44.330;23.802;2023-05-24T13:37:56;1.50;;;1.08;;
55674;SDS011;41562;44.330;23.802;2023-05-24T13:40:23;1.08;;;0.47;;
55674;SDS011;41562;44.330;23.802;2023-05-24T13:42:51;1.88;;;1.13;;
55674;SDS011;41562;44.330;23.802;2023-05-24T13:45:19;1.35;;;0.70;;
55674;SDS011;41562;44.330;23.802;2023-05-24T13:47:46;1.55;;;1.00;;
55674;SDS011;41562;44.330;23.802;2023-05-24T13:50:13;1.40;;;1.00;;
55674;SDS011;41562;44.330;23.802;2023-05-24T13:52:41;1.65;;;0.90;;
55674;SDS011;41562;44.330;23.802;2023-05-24T13:55:09;2.30;;;0.70;;
55674;SDS011;41562;44.330;23.802;2023-05-24T13:57:36;1.38;;;0.80;;
55674;SDS011;41562;44.330;23.802;2023-05-24T14:00:18;3.20;;;0.93;;
55674;SDS011;41562;44.330;23.802;2023-05-24T14:02:46;1.45;;;0.90;;
55674;SDS011;41562;44.330;23.802;2023-05-24T14:05:14;2.20;;;1.45;;
55674;SDS011;41562;44.330;23.802;2023-05-24T14:07:54;2.28;;;1.10;;
55674;SDS011;41562;44.330;23.802;2023-05-24T14:10:22;1.65;;;1.30;;
55674;SDS011;41562;44.330;23.802;2023-05-24T14:12:50;2.55;;;0.80;;
55674;SDS011;41562;44.330;23.802;2023-05-24T14:15:37;0.70;;;0.70;;
55674;SDS011;41562;44.330;23.802;2023-05-24T14:18:04;2.05;;;1.20;;
55674;SDS011;41562;44.330;23.802;2023-05-24T14:20:35;1.20;;;0.80;;
55674;SDS011;41562;44.330;23.802;2023-05-24T14:23:07;1.05;;;0.80;;
55674;SDS011;41562;44.330;23.802;2023-05-24T14:25:36;1.33;;;1.00;;
55674;SDS011;41562;44.330;23.802;2023-05-24T14:28:03;1.33;;;0.88;;
55674;SDS011;41562;44.330;23.802;2023-05-24T14:30:30;0.70;;;0.70;;
55674;SDS011;41562;44.330;23.802;2023-05-24T14:32:58;1.63;;;0.80;;
55674;SDS011;41562;44.330;23.802;2023-05-24T14:35:26;1.90;;;1.05;;
55674;SDS011;41562;44.330;23.802;2023-05-24T14:37:53;1.77;;;1.17;;
55674;SDS011;41562;44.330;23.802;2023-05-24T14:40:21;0.70;;;0.60;;
55674;SDS011;41562;44.330;23.802;2023-05-24T14:42:51;1.37;;;1.03;;
55674;SDS011;41562;44.330;23.802;2023-05-24T14:45:18;2.17;;;0.80;;
55674;SDS011;41562;44.330;23.802;2023-05-24T14:47:45;1.30;;;0.80;;
55674;SDS011;41562;44.330;23.802;2023-05-24T14:50:13;1.60;;;0.73;;
55674;SDS011;41562;44.330;23.802;2023-05-24T14:52:41;1.67;;;0.68;;
55674;SDS011;41562;44.330;23.802;2023-05-24T14:55:08;1.20;;;1.05;;
55674;SDS011;41562;44.330;23.802;2023-05-24T14:57:36;1.48;;;0.90;;
55674;SDS011;41562;44.330;23.802;2023-05-24T15:00:03;2.53;;;0.90;;
55674;SDS011;41562;44.330;23.802;2023-05-24T15:02:31;3.75;;;1.55;;
55674;SDS011;41562;44.330;23.802;2023-05-24T15:04:59;1.27;;;0.95;;